Station info - map view · info · telemetry · weather · raw · status · beacons · messages · bulletins · browse · moving · my account
Callsign, ship name or locator: Clear       
It is possible to search using wildcards (*?) after a prefix. Example: OH*
APRS station OE1BSA-10 - show graphs
Map loading...
Mic-E message: En route
Location: 48°09.85' N 16°19.55' E - locator JN88DD99CJ - show map - static map
3.1 miles North bearing 347° from Vösendorf, Politischer Bezirk Mödling, Lower Austria, Austria [?]
3.7 miles Southwest bearing 215° from Vienna, Politischer Bezirk Wien (Stadt), Vienna, Austria
4.4 miles Northeast bearing 26° from Brunn am Gebirge, Politischer Bezirk Mödling, Lower Austria, Austria
36.0 miles West bearing 272° from Bratislava, Bratislavský, Slovakia
Last position: 2018-01-16 11:56:38 EST (1d 5h5m ago)
2018-01-16 17:56:38 CET local time at Vösendorf, Austria [?]
Altitude: 741 ft
Position ambiguous: Precision reduced at transmitter by 1 digits, position resolution approximately 202.5 yards.
Course: 311°
Speed: 3 MPH
Device: Kenwood: TH-D72 (ht)
Last path: OE1BSA-10>TX0Y8L via WIDE1-1,qAR,OE1XAW (good)
Positions stored: 19099
Packet rate: 92 seconds between packets on average during 4613 seconds.
Other SSIDs: OE1BSA-9
Stations near current position of OE1BSA-10 - show more
callsign distance last heard - EST      callsign distance last heard - EST
OE4LTA-50.9 miles 130°2018-01-14 14:23:06 OE1IWA-91.1 miles 211°2018-01-16 08:33:43
OE1GKS-71.1 miles 191°2018-01-10 08:12:25 OE1GKS1.1 miles 192°2018-01-10 07:23:30
OE1XQU DP1.2 miles 74°2018-01-16 03:37:59 OE1XQU-DP1.2 miles 74°2018-01-17 16:54:35
OE1WBC-91.4 miles 131°2018-01-17 15:28:35 OE8KBC1.6 miles 339°2017-12-31 07:54:17
OE1HMF-11.8 miles 296°2018-01-10 10:11:46 OE1WUA-71.8 miles 70°2017-12-29 16:20:25
OE1HAW-101.8 miles 140°2018-01-15 13:32:40 OE1PYA-91.8 miles 182°2018-01-16 15:05:26
OE1XKR-71.8 miles 87°2018-01-17 16:49:06 OE3PTA-71.9 miles 246°2017-12-28 07:38:22
OE3SEU-91.9 miles 193°2018-01-17 17:00:20 OE1VRB1.9 miles 74°2017-12-30 17:07:12
WienX1.9 miles 74°2017-12-30 17:07:15 OE1VRB-52.0 miles 74°2018-01-05 10:03:10
IoT4PiZ2.0 miles 59°2017-12-19 08:49:01 OE3CBS-72.0 miles 16°2018-01-17 12:27:43
Stations which heard OE1BSA-10 directly on radio –
callsign pkts first heard - EST last heard longest (tx => rx) longest at - EST
OE1XQR 7 2018-01-16 10:27:38 2018-01-16 11:55:24 JN88EF > JN88EE 4.6 miles 194° 2018-01-16 10:27:38
OE3XKR 10 2018-01-16 03:15:07 2018-01-16 11:00:48 JN78SQ > JN88EN 40.1 miles 101° 2018-01-16 09:02:08
OE1SSU-10 15 2018-01-16 01:56:57 2018-01-16 11:52:40 JN88DE > JN88DD 4.7 miles 159° 2018-01-16 02:12:15
OE1SSU-12 2 2018-01-16 11:53:41 2018-01-16 11:56:08 JN88ED > JN88DD 2.6 miles 235° 2018-01-16 11:53:41
OE1XAR-10 7 2018-01-16 10:20:59 2018-01-16 10:41:11 JN88EE > JN88EH 7.5 miles 3° 2018-01-16 10:41:11
OE3XIA-10 14 2018-01-16 02:06:38 2018-01-16 10:59:46 JN88AK > JN88CF 17.4 miles 145° 2018-01-16 09:33:12
OE3MZC-2 3 2018-01-16 02:27:30 2018-01-16 02:34:10 JN78UE > JN78XE 11.0 miles 84° 2018-01-16 02:34:10
OE1ACM-12 7 2018-01-16 10:27:06 2018-01-16 10:39:15 JN88EE > JN88FF 3.5 miles 79° 2018-01-16 10:39:15
OE1IWA-11 2 2018-01-16 01:59:00 2018-01-16 02:03:05 JN88DE > JN88ED 3.7 miles 157° 2018-01-16 02:03:05
OE3XNR 7 2018-01-16 03:26:19 2018-01-16 08:40:45 JN78QN > JN78JQ 26.9 miles 287° 2018-01-16 03:26:19
OE3PDB-6 31 2018-01-16 02:07:39 2018-01-16 10:13:51 JN78RQ > JN88BG 42.0 miles 137° 2018-01-16 08:59:02
OE3BUB-10 6 2018-01-16 10:18:57 2018-01-16 11:01:17 JN88EE > JN88FG 9.7 miles 33° 2018-01-16 11:01:17
OE3PDB-3 19 2018-01-16 02:07:39 2018-01-16 10:13:51 JN78RQ > JN88BG 41.4 miles 138° 2018-01-16 08:59:32
OE1XAW 28 2018-01-16 02:06:08 2018-01-16 11:56:38 JN88EG > JN88EE 6.7 miles 171° 2018-01-16 10:23:02
OE3XLR 25 2018-01-16 02:22:25 2018-01-16 10:14:22 JN78UP > JN77TX 46.0 miles 186° 2018-01-16 09:11:46
OE3MUC-15 3 2018-01-16 03:04:25 2018-01-16 03:11:32 JN78TJ > JN78SK 3.9 miles 297° 2018-01-16 03:04:25
OE3GWW-2 3 2018-01-16 02:18:52 2018-01-16 02:20:54 JN88AE > JN88BE 4.6 miles 72° 2018-01-16 02:20:54
OE3PDB-4 2 2018-01-16 02:12:45 2018-01-16 02:13:16 JN88CE > JN88CE 2.1 miles 277° 2018-01-16 02:12:45
OE3PDB-10 5 2018-01-16 03:06:57 2018-01-16 09:37:47 JN78TK > JN88BG 24.8 miles 118° 2018-01-16 03:06:57
OE3XRC-10 21 2018-01-16 03:16:07 2018-01-16 09:15:50 JN78VO > JN78QQ 18.5 miles 292° 2018-01-16 09:15:50
OK0BDV-2 2 2018-01-16 08:26:59 2018-01-16 08:32:35 JN78NS > JN78IR 17.1 miles 259° 2018-01-16 08:32:35
OE3ZK-13 4 2018-01-16 10:18:28 2018-01-16 10:21:34 JN88DI > JN88DH 2.9 miles 191° 2018-01-16 10:18:28
OE3VPA-10 54 2018-01-16 03:26:18 2018-01-16 08:54:28 JN78QN > JN78KS 25.7 miles 304° 2018-01-16 03:26:18
OE3CJB-10 1 2018-01-16 02:38:45 2018-01-16 02:38:45 JN78UF > JN78TF 1.1 miles 229° 2018-01-16 02:38:45
OE1XJW-10 5 2018-01-16 01:59:31 2018-01-16 10:56:43 JN88DE > JN88EG 7.5 miles 32° 2018-01-16 01:59:31
OE3XWJ-10 7 2018-01-16 02:29:33 2018-01-16 02:56:47 JN78VE > JN78QI 24.8 miles 296° 2018-01-16 02:29:33

Only position packets which were originated by the station are shown here. The range statistics show some extra long hops, because some digipeaters do not correctly add themselves to the digipeater path. Please check the raw packets.
About this site
This page shows real-time information collected from the Automatic Position Reporting System Internet network (APRS-IS). APRS is used by amateur (ham) radio operators to transmit real-time position information, weather data, telemetry and messages over the radio. A vehicle equipped with a GPS receiver, a VHF transmitter or HF transceiver and a small computer device called a tracker transmits it's location, speed and course in a small data packet, which is then received by a nearby iGate receiving site which forwards the packet on the Internet. Systems connected to the Internet can send information on the APRS-IS without a radio transmitter, or collect and display information transmitted anywhere in the world.
FAQ · Blog · Discussion group · Linking to aprs.fi · AIS sites · Service status · Database statistics · Advertising on aprs.fi · Technical details · API · Change log · Planned changes · Credits and thanks · Terms Of Service · iPhone/iPad APRS